Time;durP1;ratioP1;P1;durP2;ratioP2;P2;SDS_P1;SDS_P2;PMS_P1;PMS_P2;Temp;Humidity;BMP_temperature;BMP_pressure;BME280_temperature;BME280_humidity;BME280_pressure;Samples;Min_cycle;Max_cycle;Signal;HPM_P1;HPM_P2
2022/12/18 00:00:18;;;;;;;;;65.00;51.00;;;;;4.88;68.40;100701.28;5024322;28;8862;-81
2022/12/18 00:03:08;;;;;;;;;56.75;49.00;;;;;5.16;67.65;100711.06;5035781;28;8868;-82
2022/12/18 00:05:37;;;;;;;;;65.75;52.50;;;;;5.36;65.23;100711.81;5009538;28;8873;-83
2022/12/18 00:08:06;;;;;;;;;57.50;50.75;;;;;5.07;65.03;100716.72;5008221;28;8881;-82
2022/12/18 00:10:37;;;;;;;;;62.25;46.50;;;;;5.61;63.63;100717.94;5011212;28;8864;-82
2022/12/18 00:13:06;;;;;;;;;54.50;46.25;;;;;5.27;61.73;100729.56;5027872;28;8890;-82
2022/12/18 00:15:40;;;;;;;;;48.75;42.75;;;;;5.49;61.26;100731.28;5011706;28;8859;-82
2022/12/18 00:18:10;;;;;;;;;55.75;45.50;;;;;5.09;60.11;100737.47;5019798;28;8865;-82
2022/12/18 00:20:45;;;;;;;;;47.75;42.75;;;;;4.19;62.16;100745.69;5008003;28;8854;-82
2022/12/18 00:23:14;;;;;;;;;43.75;42.00;;;;;4.08;62.17;100757.25;4991522;28;9007;-81
2022/12/18 00:25:43;;;;;;;;;50.00;38.75;;;;;3.89;61.02;100768.41;5008001;28;8850;-81
2022/12/18 00:28:11;;;;;;;;;51.25;42.00;;;;;4.02;61.32;100764.72;4992386;28;8846;-82
2022/12/18 00:30:40;;;;;;;;;47.75;43.00;;;;;3.75;61.81;100770.38;5006772;28;8869;-82
2022/12/18 00:33:10;;;;;;;;;44.25;39.50;;;;;3.73;62.27;100779.75;4990740;28;8916;-82
2022/12/18 00:35:39;;;;;;;;;46.25;42.50;;;;;3.64;62.44;100784.47;4974359;28;8858;-82
2022/12/18 00:38:08;;;;;;;;;47.25;40.75;;;;;3.70;62.67;100779.59;4984537;28;8866;-80
2022/12/18 00:40:37;;;;;;;;;47.25;42.50;;;;;3.61;63.22;100790.38;4973272;28;8850;-83
2022/12/18 00:43:04;;;;;;;;;56.00;42.50;;;;;4.01;62.33;100787.06;4990207;28;8870;-79
2022/12/18 00:45:33;;;;;;;;;45.00;41.25;;;;;4.13;61.40;100788.44;4990186;28;8862;-82
2022/12/18 00:48:02;;;;;;;;;45.75;38.25;;;;;4.77;60.31;100788.69;4992956;28;8882;-83
2022/12/18 00:50:34;;;;;;;;;47.25;43.75;;;;;4.73;58.97;100785.94;4993938;28;8843;-82
2022/12/18 00:53:03;;;;;;;;;51.00;38.50;;;;;5.28;58.37;100786.53;4995775;28;8915;-81
2022/12/18 00:55:32;;;;;;;;;47.75;38.50;;;;;4.83;57.66;100793.25;5013063;28;8856;-82
2022/12/18 00:58:00;;;;;;;;;49.00;43.50;;;;;3.92;59.00;100793.50;5012473;28;8843;-82
2022/12/18 01:00:29;;;;;;;;;48.75;42.50;;;;;3.94;59.55;100794.47;5012485;28;8933;-81
2022/12/18 01:02:58;;;;;;;;;47.25;39.50;;;;;3.75;59.74;100803.03;4997114;28;8859;-82
2022/12/18 01:05:28;;;;;;;;;51.00;38.50;;;;;3.79;59.31;100807.53;4996725;28;8856;-80
2022/12/18 01:07:58;;;;;;;;;43.25;39.75;;;;;3.86;59.57;100802.72;5010705;28;8863;-78
2022/12/18 01:10:27;;;;;;;;;45.25;43.75;;;;;3.68;59.74;100814.75;5016472;28;9007;-80
2022/12/18 01:12:58;;;;;;;;;41.50;38.50;;;;;3.71;59.87;100815.78;5007947;28;8952;-82
2022/12/18 01:15:27;;;;;;;;;42.00;37.50;;;;;3.63;60.25;100816.22;5025517;28;8869;-80
2022/12/18 01:17:56;;;;;;;;;42.50;38.00;;;;;4.05;59.11;100803.56;4992513;28;8880;-82
2022/12/18 01:20:28;;;;;;;;;51.50;40.75;;;;;4.10;58.07;100807.22;4991910;28;9686;-80
2022/12/18 01:22:58;;;;;;;;;47.50;42.25;;;;;3.74;58.27;100807.28;4995379;28;8916;-83
2022/12/18 01:25:28;;;;;;;;;19.75;16.75;;;;;3.81;57.93;100819.66;5011195;28;9643;-80
2022/12/18 01:27:57;;;;;;;;;46.25;38.75;;;;;3.43;59.32;100815.25;4995326;28;8872;-81
2022/12/18 01:30:26;;;;;;;;;41.50;34.25;;;;;3.65;59.12;100814.63;4995494;28;8894;-81
2022/12/18 01:32:54;;;;;;;;;45.25;41.50;;;;;3.44;58.71;100817.94;5027286;28;8904;-80
2022/12/18 01:35:23;;;;;;;;;31.00;23.25;;;;;3.62;58.94;100825.66;5011001;28;8973;-82
2022/12/18 01:37:55;;;;;;;;;42.00;39.75;;;;;3.34;59.63;100828.56;5010760;28;8878;-80
2022/12/18 01:40:25;;;;;;;;;39.50;36.00;;;;;3.28;59.65;100833.44;5011329;28;8838;-80
2022/12/18 01:42:54;;;;;;;;;44.50;33.50;;;;;3.88;59.23;100832.06;4994600;28;9666;-80
2022/12/18 01:45:27;;;;;;;;;45.00;37.50;;;;;3.90;58.94;100837.28;5010399;28;8905;-81
2022/12/18 01:47:58;;;;;;;;;44.25;43.50;;;;;3.83;58.99;100836.09;4994650;28;8858;-80
2022/12/18 01:50:31;;;;;;;;;35.50;29.00;;;;;4.03;58.02;100846.50;5012820;28;8890;-80
2022/12/18 01:53:04;;;;;;;;;45.00;38.75;;;;;4.12;58.00;100834.03;5031882;28;8882;-81
2022/12/18 01:55:39;;;;;;;;;49.50;42.00;;;;;4.09;57.95;100836.47;5014423;28;9649;-81
2022/12/18 01:58:08;;;;;;;;;40.50;37.75;;;;;4.22;56.67;100836.22;5007167;28;8908;-81
2022/12/18 02:00:37;;;;;;;;;49.50;43.00;;;;;4.29;57.45;100837.34;5012301;28;8892;-81
2022/12/18 02:03:06;;;;;;;;;46.50;40.00;;;;;3.88;58.14;100851.81;5027213;28;8965;-80
2022/12/18 02:05:55;;;;;;;;;52.25;41.75;;;;;3.80;58.50;100846.31;4994244;28;8846;-78
2022/12/18 02:08:31;;;;;;;;;32.75;30.75;;;;;3.76;58.69;100844.34;4961366;28;8843;-81
2022/12/18 02:11:08;;;;;;;;;41.00;36.25;;;;;3.78;58.31;100844.44;5010502;28;8838;-80
2022/12/18 02:13:44;;;;;;;;;45.50;39.25;;;;;3.56;59.11;100852.84;5010598;28;8866;-80
2022/12/18 02:16:22;;;;;;;;;40.50;38.75;;;;;3.74;58.88;100851.13;4994267;28;8866;-81
2022/12/18 02:18:57;;;;;;;;;34.00;29.50;;;;;3.91;58.77;100859.69;5028686;28;8965;-81
2022/12/18 02:21:35;;;;;;;;;52.50;42.75;;;;;4.07;58.57;100856.16;5030928;28;8892;-80
2022/12/18 02:24:18;;;;;;;;;70.25;52.75;;;;;4.43;58.16;100854.38;5049309;28;9505;-79
2022/12/18 02:26:52;;;;;;;;;72.25;55.25;;;;;4.69;56.48;100854.66;5049036;28;8842;-79
2022/12/18 02:29:28;;;;;;;;;76.00;59.75;;;;;4.35;57.57;100850.56;5015824;28;8850;-79
2022/12/18 02:31:59;;;;;;;;;73.75;56.75;;;;;4.37;57.20;100856.69;5031973;28;8866;-81
2022/12/18 02:34:32;;;;;;;;;71.25;57.25;;;;;4.68;56.51;100858.94;5031681;28;8950;-80
2022/12/18 02:37:06;;;;;;;;;42.75;39.50;;;;;4.04;58.19;100864.63;5015639;28;8946;-79
2022/12/18 02:39:38;;;;;;;;;51.25;43.75;;;;;4.21;57.91;100865.41;5028505;28;8853;-80
2022/12/18 02:42:09;;;;;;;;;44.00;38.50;;;;;4.04;58.90;100871.47;5012967;28;8855;-80
2022/12/18 02:44:44;;;;;;;;;241.67;210.33;;;;;4.01;58.24;100872.22;5012211;28;8880;-79
2022/12/18 02:47:17;;;;;;;;;56.75;50.25;;;;;3.76;59.06;100871.84;4996301;28;8933;-80
2022/12/18 02:49:59;;;;;;;;;197.00;169.00;;;;;3.92;59.33;100869.22;5012119;28;8868;-80
2022/12/18 02:52:40;;;;;;;;;122.50;112.50;;;;;4.14;58.57;100865.06;5012439;28;11616;-80
2022/12/18 02:55:25;;;;;;;;;108.50;84.25;;;;;4.42;58.98;100862.94;5018136;28;10571;-79
2022/12/18 02:58:06;;;;;;;;;80.00;59.75;;;;;5.01;58.33;100848.31;5015676;28;10166;-78
2022/12/18 03:00:42;;;;;;;;;62.75;47.25;;;;;5.26;57.64;100860.56;5000588;28;8851;-79
2022/12/18 03:03:17;;;;;;;;;42.25;38.75;;;;;5.47;56.96;100864.88;5006461;28;8855;-81
2022/12/18 03:05:53;;;;;;;;;48.00;41.00;;;;;5.79;55.74;100854.97;5039372;28;8872;-79
2022/12/18 03:08:26;;;;;;;;;52.25;44.75;;;;;5.19;55.78;100866.28;5003159;28;9604;-78
2022/12/18 03:11:02;;;;;;;;;45.25;41.25;;;;;5.42;56.01;100869.84;5005222;28;8938;-78
2022/12/18 03:13:40;;;;;;;;;45.75;41.00;;;;;5.21;56.70;100880.16;5014737;28;8837;-79
2022/12/18 03:16:18;;;;;;;;;65.25;50.75;;;;;5.35;55.66;100885.94;5031181;28;8888;-80
2022/12/18 03:18:52;;;;;;;;;51.50;40.25;;;;;5.56;55.69;100885.97;4998105;28;8856;-79
2022/12/18 03:21:29;;;;;;;;;49.25;43.50;;;;;5.74;54.91;100882.34;5011994;28;8944;-79
2022/12/18 03:23:59;;;;;;;;;49.00;42.00;;;;;5.97;55.32;100883.28;5028863;28;8887;-79
2022/12/18 03:26:30;;;;;;;;;53.25;44.75;;;;;6.30;54.55;100878.56;5011398;28;8848;-80
2022/12/18 03:29:08;;;;;;;;;55.25;41.50;;;;;6.33;54.74;100881.28;4994712;28;8868;-80
2022/12/18 03:31:41;;;;;;;;;49.25;43.00;;;;;6.32;54.45;100884.69;4994874;28;8855;-79
2022/12/18 03:34:15;;;;;;;;;49.25;43.25;;;;;6.30;53.31;100890.63;5011036;28;9006;-81
2022/12/18 03:36:47;;;;;;;;;46.00;39.25;;;;;4.86;56.99;100899.34;4991388;28;8952;-80
2022/12/18 03:39:16;;;;;;;;;49.75;43.75;;;;;4.51;58.19;100890.88;4975794;28;8850;-82
2022/12/18 03:41:57;;;;;;;;;55.50;45.50;;;;;4.10;59.17;100898.47;4991706;28;8967;-80
2022/12/18 03:44:46;;;;;;;;;49.75;43.50;;;;;3.88;59.22;100901.72;4974380;28;8882;-80
2022/12/18 03:47:18;;;;;;;;;30.00;19.75;;;;;4.26;58.86;100907.81;4991513;28;8860;-80
2022/12/18 03:49:55;;;;;;;;;44.00;37.25;;;;;4.89;58.31;100905.50;4995166;28;8851;-80
2022/12/18 03:52:29;;;;;;;;;56.50;44.75;;;;;5.06;56.74;100906.25;5011360;28;9010;-79
2022/12/18 03:55:01;;;;;;;;;44.50;40.25;;;;;5.26;56.38;100904.53;5010838;28;8962;-80
2022/12/18 03:57:32;;;;;;;;;45.25;40.75;;;;;4.73;57.07;100907.38;4985282;28;8957;-78
2022/12/18 04:00:07;;;;;;;;;49.00;41.50;;;;;4.81;57.70;100926.69;5045431;28;8875;-80
2022/12/18 04:02:46;;;;;;;;;48.00;39.50;;;;;5.18;55.96;100925.69;5027673;28;8887;-81
2022/12/18 04:05:25;;;;;;;;;51.75;44.25;;;;;5.57;55.28;100923.06;5028023;28;8859;-78
2022/12/18 04:07:56;;;;;;;;;46.00;39.25;;;;;5.32;54.82;100918.56;5044478;28;8956;-80
2022/12/18 04:10:24;;;;;;;;;42.25;35.25;;;;;5.35;53.71;100911.81;5011985;28;8860;-81
2022/12/18 04:12:57;;;;;;;;;46.50;40.00;;;;;5.76;53.69;100923.00;5027940;28;9628;-81
2022/12/18 04:15:28;;;;;;;;;45.50;37.50;;;;;5.68;54.48;100928.69;5011147;28;8883;-81
2022/12/18 04:17:59;;;;;;;;;38.50;34.75;;;;;5.73;53.07;100921.97;5010427;28;8878;-80
2022/12/18 04:20:37;;;;;;;;;44.00;39.00;;;;;4.71;55.13;100929.63;5043861;28;8871;-80
2022/12/18 04:23:06;;;;;;;;;47.25;42.75;;;;;5.16;54.50;100935.09;5027826;28;8982;-79
2022/12/18 04:25:36;;;;;;;;;44.50;41.00;;;;;5.36;54.20;100936.84;5011136;28;8855;-81
2022/12/18 04:28:08;;;;;;;;;53.75;42.50;;;;;5.11;54.16;100947.84;5029820;28;8894;-81
2022/12/18 04:30:41;;;;;;;;;50.75;43.75;;;;;5.44;53.61;100960.44;4997756;28;8842;-78
2022/12/18 04:33:10;;;;;;;;;40.75;37.25;;;;;5.41;53.62;100955.16;5039450;28;8878;-81
2022/12/18 04:35:40;;;;;;;;;43.25;36.75;;;;;5.45;53.18;100955.34;5010298;28;9621;-79
2022/12/18 04:38:10;;;;;;;;;46.75;36.75;;;;;5.65;53.61;100968.25;5011004;28;8845;-79
2022/12/18 04:40:39;;;;;;;;;43.25;36.00;;;;;5.67;53.03;100964.00;5013344;28;8875;-79
2022/12/18 04:43:17;;;;;;;;;48.75;40.00;;;;;5.77;51.95;100973.94;5012677;28;8969;-82
2022/12/18 04:45:47;;;;;;;;;56.00;42.50;;;;;5.59;52.96;100983.50;4993955;28;8853;-79
2022/12/18 04:48:17;;;;;;;;;36.25;35.00;;;;;5.49;53.38;100986.53;5022826;28;8908;-82
2022/12/18 04:50:45;;;;;;;;;54.00;44.00;;;;;5.68;53.07;100988.22;5018749;28;8836;-79
2022/12/18 04:53:14;;;;;;;;;48.50;41.50;;;;;5.43;53.01;100993.22;5009638;28;8876;-79
2022/12/18 04:55:43;;;;;;;;;37.25;33.75;;;;;5.40;53.51;100992.19;5043124;28;9044;-79
2022/12/18 04:58:11;;;;;;;;;53.75;42.75;;;;;5.55;53.12;101000.59;5010185;28;8849;-81
2022/12/18 05:00:40;;;;;;;;;58.25;46.25;;;;;4.93;53.71;101011.63;4977684;28;8874;-80
2022/12/18 05:03:10;;;;;;;;;43.00;39.00;;;;;5.09;53.96;101003.75;4993991;28;8862;-81
2022/12/18 05:05:39;;;;;;;;;56.75;46.50;;;;;4.64;55.14;101004.28;5010215;28;8838;-81
2022/12/18 05:08:07;;;;;;;;;58.00;46.75;;;;;4.82;55.81;101011.13;4976678;28;8909;-79
2022/12/18 05:10:36;;;;;;;;;41.75;35.50;;;;;5.10;54.83;101020.16;4993728;28;8866;-80
2022/12/18 05:13:05;;;;;;;;;51.50;46.25;;;;;4.64;54.74;101024.09;5009849;28;9623;-80
2022/12/18 05:15:35;;;;;;;;;51.00;43.75;;;;;4.06;57.59;101024.72;4981643;28;8857;-79
2022/12/18 05:18:05;;;;;;;;;58.50;48.25;;;;;4.62;56.70;101017.97;4974058;28;8861;-81
2022/12/18 05:20:35;;;;;;;;;47.75;42.75;;;;;4.68;56.05;101020.81;5025784;28;8838;-82
2022/12/18 05:23:03;;;;;;;;;56.75;45.25;;;;;4.78;56.08;101029.88;5008569;28;8971;-81
2022/12/18 05:25:32;;;;;;;;;59.00;48.00;;;;;4.96;55.19;101035.03;5014755;28;8859;-78
2022/12/18 05:28:01;;;;;;;;;50.00;43.75;;;;;4.61;56.24;101029.09;5031167;28;8859;-79
2022/12/18 05:30:29;;;;;;;;;53.25;44.50;;;;;4.09;56.37;101042.97;5032228;28;8867;-82
2022/12/18 05:32:58;;;;;;;;;59.25;46.75;;;;;3.79;58.29;101040.59;4998177;28;8863;-79
2022/12/18 05:35:27;;;;;;;;;51.25;43.75;;;;;4.30;57.33;101046.59;5029013;28;8856;-79
2022/12/18 05:37:57;;;;;;;;;59.00;46.25;;;;;4.00;57.76;101057.97;5013875;28;8850;-79
2022/12/18 05:40:26;;;;;;;;;58.25;45.75;;;;;4.41;57.52;101054.00;5035758;28;8862;-81
2022/12/18 05:42:55;;;;;;;;;44.00;39.50;;;;;4.74;56.69;101061.56;5045070;28;8961;-79
2022/12/18 05:45:24;;;;;;;;;61.50;46.00;;;;;4.80;56.21;101055.00;4994931;28;9765;-81
2022/12/18 05:47:52;;;;;;;;;50.25;45.00;;;;;4.91;56.01;101065.84;5011303;28;8967;-81
2022/12/18 05:50:21;;;;;;;;;50.75;43.50;;;;;4.80;55.17;101075.69;4962501;28;8842;-79
2022/12/18 05:52:49;;;;;;;;;55.25;45.25;;;;;4.17;57.60;101067.44;5010952;28;8978;-82
2022/12/18 05:55:20;;;;;;;;;46.00;42.25;;;;;3.99;58.44;101070.00;5010671;28;8851;-79
2022/12/18 05:57:49;;;;;;;;;55.75;47.00;;;;;3.16;60.71;101083.72;5027264;28;8862;-80
2022/12/18 06:00:18;;;;;;;;;51.25;43.75;;;;;3.17;61.16;101080.34;5010395;28;8892;-79
2022/12/18 06:02:48;;;;;;;;;46.00;43.25;;;;;3.24;61.21;101084.13;5044089;28;8972;-79
2022/12/18 06:05:17;;;;;;;;;52.75;45.25;;;;;3.77;59.95;101080.91;5012715;28;8869;-79
2022/12/18 06:07:45;;;;;;;;;55.75;45.25;;;;;3.57;59.66;101090.19;5027120;28;8866;-80
2022/12/18 06:10:14;;;;;;;;;47.00;39.75;;;;;3.23;60.94;101088.41;4994131;28;8889;-81
2022/12/18 06:12:45;;;;;;;;;58.50;46.25;;;;;3.47;60.25;101093.09;5026931;28;8850;-80
2022/12/18 06:15:15;;;;;;;;;54.75;44.25;;;;;3.19;60.50;101093.31;5043438;28;8858;-79
2022/12/18 06:17:44;;;;;;;;;47.75;44.00;;;;;3.40;60.92;101086.72;5010494;28;8920;-80
2022/12/18 06:20:14;;;;;;;;;68.25;51.50;;;;;3.41;60.84;101101.41;5011891;28;8885;-80
2022/12/18 06:22:43;;;;;;;;;45.75;41.50;;;;;3.30;60.83;101102.50;4993910;28;8900;-78
2022/12/18 06:25:11;;;;;;;;;47.25;44.75;;;;;3.36;61.12;101104.53;5011906;28;8845;-79
2022/12/18 06:27:41;;;;;;;;;55.75;47.00;;;;;3.79;60.70;101105.09;4995626;28;8876;-81
2022/12/18 06:30:13;;;;;;;;;44.75;36.25;;;;;3.28;61.30;101112.72;4990938;28;8882;-80
2022/12/18 06:32:42;;;;;;;;;47.25;41.25;;;;;2.71;62.92;101122.47;4966508;28;8950;-79
2022/12/18 06:35:11;;;;;;;;;57.25;44.75;;;;;2.31;64.61;101132.19;4950042;28;8863;-78
2022/12/18 06:37:40;;;;;;;;;52.25;42.00;;;;;2.09;64.81;101137.75;4966614;28;8883;-79
2022/12/18 06:40:09;;;;;;;;;54.25;48.00;;;;;1.91;65.78;101146.16;4963239;28;8856;-78
2022/12/18 06:42:38;;;;;;;;;56.75;45.00;;;;;2.01;65.81;101154.44;4934280;28;9044;-79
2022/12/18 06:45:08;;;;;;;;;48.25;43.75;;;;;2.26;64.76;101149.94;4949943;28;8876;-79
2022/12/18 06:47:37;;;;;;;;;47.25;43.75;;;;;2.13;65.08;101145.72;4953085;28;8872;-80
2022/12/18 06:50:08;;;;;;;;;54.25;42.25;;;;;2.13;65.43;101150.00;4946385;29;8866;-79
2022/12/18 06:52:38;;;;;;;;;57.50;47.00;;;;;2.02;65.25;101159.66;4946582;29;8924;-79
2022/12/18 06:55:09;;;;;;;;;56.00;43.50;;;;;2.48;63.91;101154.66;4946479;29;8917;-80
2022/12/18 06:57:37;;;;;;;;;60.25;49.00;;;;;2.49;63.96;101158.97;4930908;29;8882;-79
2022/12/18 07:00:08;;;;;;;;;56.00;46.25;;;;;2.61;63.22;101163.06;4914317;29;8880;-81
2022/12/18 07:02:38;;;;;;;;;48.00;45.50;;;;;2.67;63.28;101160.88;4890442;29;8856;-80
2022/12/18 07:05:08;;;;;;;;;47.00;45.75;;;;;2.96;62.67;101157.34;4930043;29;8901;-79
2022/12/18 07:07:38;;;;;;;;;63.50;48.50;;;;;3.24;62.78;101169.22;4939069;28;8871;-79
2022/12/18 07:10:07;;;;;;;;;57.25;49.25;;;;;3.34;61.71;101174.06;4968533;28;8967;-79
2022/12/18 07:12:36;;;;;;;;;54.50;46.75;;;;;3.60;61.56;101182.34;4968442;28;9042;-81
2022/12/18 07:15:06;;;;;;;;;56.50;45.75;;;;;3.57;60.91;101185.63;4987858;28;8894;-80
2022/12/18 07:17:34;;;;;;;;;60.50;48.75;;;;;3.78;60.40;101182.41;4988080;28;8875;-80
2022/12/18 07:20:06;;;;;;;;;63.75;52.75;;;;;3.84;58.72;101182.75;4980138;28;8838;-79
2022/12/18 07:22:34;;;;;;;;;68.00;55.50;;;;;3.54;59.83;101175.16;5007929;28;8967;-80
2022/12/18 07:25:03;;;;;;;;;59.75;49.25;;;;;3.58;59.78;101189.97;5005000;28;9724;-81
2022/12/18 07:27:31;;;;;;;;;52.25;48.50;;;;;3.94;59.58;101184.13;4974683;28;8877;-80
2022/12/18 07:30:00;;;;;;;;;56.25;48.50;;;;;4.17;58.78;101186.22;5007478;28;8834;-80
2022/12/18 07:32:29;;;;;;;;;56.25;48.25;;;;;4.35;58.48;101193.13;5013266;28;9677;-79
2022/12/18 07:34:58;;;;;;;;;61.50;52.75;;;;;4.38;58.03;101199.31;5030474;28;8922;-79
2022/12/18 07:37:28;;;;;;;;;63.75;49.50;;;;;4.34;57.26;101206.84;5031463;28;8865;-79
2022/12/18 07:39:56;;;;;;;;;57.25;49.50;;;;;4.57;57.11;101206.31;5030470;28;8857;-79
2022/12/18 07:42:35;;;;;;;;;62.75;50.50;;;;;4.54;56.67;101206.19;5046852;28;9091;-79
2022/12/18 07:45:05;;;;;;;;;65.50;51.25;;;;;4.61;56.41;101204.78;5030172;28;8919;-79
2022/12/18 07:47:35;;;;;;;;;56.00;47.75;;;;;4.69;56.60;101213.81;5007033;28;8842;-79
2022/12/18 07:50:06;;;;;;;;;65.25;48.25;;;;;4.74;56.34;101207.16;4990905;28;8967;-80
2022/12/18 07:52:36;;;;;;;;;57.75;46.75;;;;;4.92;56.69;101208.91;4990955;28;8996;-80
2022/12/18 07:55:05;;;;;;;;;58.00;51.00;;;;;4.94;56.88;101197.81;5036450;28;8853;-78
2022/12/18 07:57:35;;;;;;;;;56.00;49.00;;;;;5.07;56.28;101200.19;5013239;28;9685;-78
2022/12/18 08:00:24;;;;;;;;;59.00;47.75;;;;;5.24;55.46;101197.53;5063217;28;8850;-80
2022/12/18 08:02:53;;;;;;;;;62.50;48.75;;;;;5.06;55.04;101198.41;5046327;28;8867;-78
2022/12/18 08:05:22;;;;;;;;;52.50;44.50;;;;;5.06;55.44;101205.28;5013938;28;8871;-81
2022/12/18 08:07:52;;;;;;;;;53.00;47.25;;;;;4.78;56.39;101215.97;5046269;28;8848;-81
2022/12/18 08:10:21;;;;;;;;;62.00;51.50;;;;;5.07;56.12;101201.91;5013530;28;8937;-79
2022/12/18 08:12:51;;;;;;;;;59.75;49.50;;;;;5.03;55.86;101207.75;5039560;28;8867;-80
2022/12/18 08:15:19;;;;;;;;;70.00;54.50;;;;;5.00;56.41;101213.63;5046436;28;8948;-80
2022/12/18 08:17:48;;;;;;;;;62.00;49.50;;;;;4.43;56.60;101218.53;5029618;28;8871;-79
2022/12/18 08:20:18;;;;;;;;;61.50;49.50;;;;;4.80;57.06;101224.66;5046295;28;8955;-80
2022/12/18 08:22:46;;;;;;;;;57.50;48.00;;;;;4.56;56.84;101225.22;5013281;28;8854;-80
2022/12/18 08:25:17;;;;;;;;;60.25;47.75;;;;;3.94;59.15;101235.75;5061565;28;8872;-80
2022/12/18 08:27:45;;;;;;;;;55.50;47.75;;;;;3.59;59.99;101237.28;5027647;28;8851;-82
2022/12/18 08:30:14;;;;;;;;;61.75;48.00;;;;;3.87;59.34;101237.09;5010392;28;8893;-80
2022/12/18 08:32:43;;;;;;;;;68.25;51.75;;;;;3.20;60.90;101247.19;5006783;28;8862;-79
2022/12/18 08:35:12;;;;;;;;;68.00;52.00;;;;;2.98;61.40;101251.09;4975019;28;8858;-79
2022/12/18 08:37:45;;;;;;;;;58.75;43.75;;;;;2.92;62.29;101249.03;4974862;28;8866;-79
2022/12/18 08:40:16;;;;;;;;;71.00;53.75;;;;;3.03;62.30;101252.25;4990898;28;8888;-79
2022/12/18 08:45:31;;;;;;;;;62.50;51.25;;;;;2.51;63.39;101264.66;4992690;28;8840;-79
2022/12/18 08:47:59;;;;;;;;;61.25;50.50;;;;;2.25;64.62;101265.66;5026599;28;8843;-80
2022/12/18 08:50:28;;;;;;;;;64.75;53.00;;;;;2.20;65.02;101259.34;5009807;28;8867;-80
2022/12/18 08:52:56;;;;;;;;;75.50;60.00;;;;;2.41;65.19;101255.50;5009657;28;8855;-79
2022/12/18 08:55:27;;;;;;;;;64.25;51.00;;;;;2.09;65.59;101263.84;4983231;28;9013;-80
2022/12/18 08:57:55;;;;;;;;;74.00;57.00;;;;;2.19;65.41;101263.59;4970514;28;8849;-79
2022/12/18 09:00:24;;;;;;;;;59.25;47.50;;;;;2.27;65.13;101272.69;4986570;28;8857;-79
2022/12/18 09:02:53;;;;;;;;;68.75;51.00;;;;;2.75;63.47;101269.50;4993269;28;8877;-78
2022/12/18 09:05:22;;;;;;;;;65.00;51.75;;;;;3.47;62.96;101259.03;4993452;28;8867;-79
2022/12/18 09:07:50;;;;;;;;;65.00;49.75;;;;;3.57;61.55;101269.84;5009784;28;8906;-80
2022/12/18 09:10:19;;;;;;;;;56.75;51.25;;;;;3.13;63.25;101271.69;5009045;28;8856;-79
2022/12/18 09:12:50;;;;;;;;;64.00;54.75;;;;;3.25;63.10;101262.09;5009318;28;8849;-80
2022/12/18 09:15:19;;;;;;;;;59.00;50.00;;;;;4.00;61.63;101264.47;5020970;28;8842;-79
2022/12/18 09:17:49;;;;;;;;;66.50;54.25;;;;;3.81;60.45;101265.16;5028143;28;8877;-80
2022/12/18 09:20:18;;;;;;;;;66.50;53.00;;;;;3.21;62.15;101274.72;5007938;28;8874;-82
2022/12/18 09:22:47;;;;;;;;;72.75;55.75;;;;;3.07;62.37;101274.81;5040174;28;8980;-80
2022/12/18 09:25:16;;;;;;;;;70.25;54.25;;;;;3.24;61.73;101275.78;5027038;28;9580;-78
2022/12/18 09:27:47;;;;;;;;;66.25;56.25;;;;;2.99;62.51;101270.91;5023814;28;8862;-80
2022/12/18 09:30:18;;;;;;;;;68.75;52.50;;;;;2.87;62.54;101272.75;5023505;28;8870;-79
2022/12/18 09:32:46;;;;;;;;;60.00;47.75;;;;;3.26;62.61;101269.03;5008144;28;8854;-80
2022/12/18 09:35:15;;;;;;;;;78.00;60.00;;;;;3.47;61.90;101266.75;5022771;28;8869;-79
2022/12/18 09:37:44;;;;;;;;;60.75;50.50;;;;;3.87;59.72;101266.38;4990713;28;8874;-79
2022/12/18 09:40:15;;;;;;;;;65.25;50.75;;;;;4.51;59.43;101252.50;4990552;28;8890;-79
2022/12/18 09:42:49;;;;;;;;;73.00;55.75;;;;;3.65;60.44;101268.59;5023907;28;8850;-78
2022/12/18 09:45:19;;;;;;;;;70.50;50.75;;;;;3.80;59.36;101273.69;5011590;28;8858;-80
2022/12/18 09:47:51;;;;;;;;;79.25;62.50;;;;;3.34;60.68;101274.59;4994152;28;8858;-80
2022/12/18 09:50:27;;;;;;;;;63.25;53.00;;;;;3.25;61.17;101274.09;5016424;28;8967;-80
2022/12/18 09:53:00;;;;;;;;;64.00;54.50;;;;;3.29;61.23;101276.06;5029561;28;8848;-80
2022/12/18 09:55:32;;;;;;;;;68.75;54.50;;;;;3.41;61.16;101268.13;4979641;28;8852;-79
2022/12/18 09:58:14;;;;;;;;;62.00;49.25;;;;;4.07;60.35;101259.72;5012559;28;8922;-79
2022/12/18 10:00:45;;;;;;;;;69.50;59.00;;;;;4.42;57.77;101272.69;5012729;28;8861;-79
2022/12/18 10:03:15;;;;;;;;;69.50;56.75;;;;;3.88;59.53;101280.19;5012952;28;8856;-79
2022/12/18 10:05:57;;;;;;;;;69.25;57.00;;;;;4.37;58.59;101269.88;4996194;28;8926;-79
2022/12/18 10:08:37;;;;;;;;;72.75;55.25;;;;;4.30;57.92;101267.78;5022993;28;8977;-79
2022/12/18 10:11:24;;;;;;;;;71.75;56.75;;;;;4.01;58.64;101272.28;5048623;28;8980;-80
2022/12/18 10:13:59;;;;;;;;;71.00;58.75;;;;;4.26;57.58;101261.56;4971784;28;8872;-79
2022/12/18 10:16:38;;;;;;;;;71.50;57.50;;;;;3.89;59.48;101275.09;5028742;28;8856;-80
2022/12/18 10:19:25;;;;;;;;;76.25;60.50;;;;;4.11;58.27;101268.50;5011809;28;8939;-80
2022/12/18 10:22:02;;;;;;;;;73.00;54.25;;;;;3.29;59.72;101270.91;5009179;28;9628;-79
2022/12/18 10:24:39;;;;;;;;;78.00;61.00;;;;;3.27;60.43;101280.22;5025604;28;8862;-79
2022/12/18 10:27:17;;;;;;;;;69.50;57.00;;;;;3.18;60.50;101280.59;4993380;28;8940;-80
2022/12/18 10:29:47;;;;;;;;;67.00;54.00;;;;;3.09;60.92;101280.06;5026114;28;9031;-81
2022/12/18 10:32:20;;;;;;;;;70.25;53.75;;;;;3.30;60.76;101281.28;5009615;28;9588;-79
2022/12/18 10:34:50;;;;;;;;;73.50;57.25;;;;;4.10;60.22;101277.03;5026273;28;9608;-80
2022/12/18 10:37:29;;;;;;;;;61.50;48.50;;;;;4.07;58.47;101274.31;5042555;28;8854;-80
2022/12/18 10:40:11;;;;;;;;;72.50;55.25;;;;;4.13;57.65;101277.22;4993462;28;8878;-79
2022/12/18 10:42:48;;;;;;;;;68.00;53.25;;;;;4.01;58.82;101271.41;5028855;28;8864;-78
2022/12/18 10:45:18;;;;;;;;;65.25;54.25;;;;;3.47;60.04;101274.50;5012882;28;8863;-78
2022/12/18 10:47:50;;;;;;;;;66.00;52.00;;;;;3.70;59.17;101285.19;5002325;28;8846;-78
2022/12/18 10:50:28;;;;;;;;;65.75;54.00;;;;;3.27;60.12;101287.94;5009449;28;8850;-80
2022/12/18 10:53:21;;;;;;;;;60.50;50.00;;;;;2.93;60.98;101284.34;5025990;28;8854;-78
2022/12/18 10:55:51;;;;;;;;;74.75;56.75;;;;;3.12;61.00;101291.44;4992962;28;8862;-78
2022/12/18 10:58:26;;;;;;;;;77.50;60.00;;;;;3.41;60.87;101289.63;4996665;28;8878;-80
2022/12/18 11:01:10;;;;;;;;;67.50;47.00;;;;;3.56;59.55;101274.13;5029257;28;8839;-80
2022/12/18 11:03:43;;;;;;;;;64.50;53.50;;;;;3.06;61.58;101292.75;5013629;28;8953;-79
2022/12/18 11:06:13;;;;;;;;;74.75;61.25;;;;;2.88;62.46;101282.28;5004125;28;8948;-79
2022/12/18 11:08:44;;;;;;;;;72.75;58.50;;;;;3.00;61.96;101284.69;4960830;28;8926;-79
2022/12/18 11:11:21;;;;;;;;;74.00;58.25;;;;;3.40;61.28;101280.09;4994112;28;8865;-80
2022/12/18 11:14:02;;;;;;;;;70.75;58.25;;;;;3.41;60.98;101274.16;4993866;28;8932;-79
2022/12/18 11:16:35;;;;;;;;;78.25;63.50;;;;;3.47;60.41;101286.50;5030885;28;8885;-80
2022/12/18 11:19:26;;;;;;;;;70.75;58.00;;;;;3.63;60.58;101285.66;5030714;28;8831;-79
2022/12/18 11:21:55;;;;;;;;;60.00;49.75;;;;;3.57;60.05;101281.03;5014136;28;8842;-80
2022/12/18 11:24:30;;;;;;;;;76.75;60.50;;;;;4.02;60.41;101270.59;5031535;28;8863;-79
2022/12/18 11:27:02;;;;;;;;;78.25;58.75;;;;;4.55;59.48;101263.91;5023706;28;8889;-80
2022/12/18 11:29:36;;;;;;;;;76.75;59.50;;;;;5.20;57.42;101258.56;4968163;28;8935;-80
2022/12/18 11:32:34;;;;;;;;;66.75;54.25;;;;;5.68;54.39;101250.47;4999938;28;8891;-79
2022/12/18 11:35:16;;;;;;;;;75.25;58.75;;;;;5.91;53.82;101248.94;4987731;28;8957;-80
2022/12/18 11:37:50;;;;;;;;;67.75;54.25;;;;;6.23;54.13;101245.25;4971253;28;8854;-80
2022/12/18 11:40:23;;;;;;;;;76.75;59.75;;;;;5.97;52.29;101246.69;4955093;28;8976;-79
2022/12/18 11:42:59;;;;;;;;;79.25;62.75;;;;;4.97;54.40;101257.44;4975994;28;8872;-81
2022/12/18 11:45:30;;;;;;;;;77.50;61.50;;;;;4.78;55.49;101255.63;4935913;28;8893;-79
2022/12/18 11:48:05;;;;;;;;;53.25;43.50;;;;;4.55;55.87;101253.56;4948210;28;8884;-79